Cummings, North Dakota
Current Conditions -  °F | °C
As of 7:53 AM on Thursday 18 Dec 2014 (Local Time) from KGFK Reporting Station
Broken Clouds Broken Clouds  
Wind Chill: -3°   Ceiling: 16000
Heat Index:   Visibility: 10mi
Dew Point:   Wind: 6mph
Humidity: 87%   Direction: 140°SE
Pressure: 30.24"   Gusts: NA
Location:  47.51°N, 97.08°W
Report Text: KGFK 181353Z 14005KT 10SM BKN160 M14/M16 A3024 RMK AO2 SLP264 T11391156
Loading
Personal Weather Stations






























Interactive Weather Map New forecast layout! Learn more

10-Day Weather Forecast

Advertisements
Track Severe Weather on mobile